createdAt,value
2019-01-14T00:01:01.933Z,31.90
2019-01-14T00:03:31.219Z,33.93
2019-01-14T00:06:00.422Z,36.90
2019-01-14T00:08:30.312Z,37.30
2019-01-14T00:10:59.536Z,43.57
2019-01-14T00:13:28.736Z,26.13
2019-01-14T00:15:58.132Z,32.63
2019-01-14T00:18:27.336Z,30.93
2019-01-14T00:20:56.609Z,36.80
2019-01-14T00:23:25.740Z,32.87
2019-01-14T00:25:54.976Z,24.80
2019-01-14T00:28:24.163Z,35.47
2019-01-14T00:30:53.356Z,29.87
2019-01-14T00:33:22.581Z,33.80
2019-01-14T00:35:51.841Z,35.77
2019-01-14T00:38:21.086Z,29.77
2019-01-14T00:40:50.269Z,42.47
2019-01-14T00:43:19.479Z,30.37
2019-01-14T00:45:48.660Z,35.00
2019-01-14T00:48:17.888Z,32.60
2019-01-14T00:50:47.083Z,35.97
2019-01-14T00:53:16.290Z,30.73
2019-01-14T00:55:45.512Z,31.37
2019-01-14T00:58:14.710Z,40.17
2019-01-14T01:00:43.888Z,29.27
2019-01-14T01:03:13.116Z,30.13
2019-01-14T01:05:42.371Z,30.00
2019-01-14T01:08:11.516Z,35.67
2019-01-14T01:10:40.742Z,36.57
2019-01-14T01:13:10.017Z,32.47
2019-01-14T01:15:39.260Z,35.70
2019-01-14T01:18:08.475Z,28.00
2019-01-14T01:20:37.952Z,42.30
2019-01-14T01:23:07.144Z,36.57
2019-01-14T01:25:36.374Z,33.20
2019-01-14T01:28:05.644Z,38.73
2019-01-14T01:30:34.916Z,29.10
2019-01-14T01:33:04.144Z,24.27
2019-01-14T01:35:33.347Z,31.90
2019-01-14T01:38:02.637Z,27.53
2019-01-14T01:40:31.859Z,22.17
2019-01-14T01:43:01.052Z,25.80
2019-01-14T01:45:30.348Z,27.80
2019-01-14T01:47:59.560Z,28.97
2019-01-14T01:50:28.744Z,34.17
2019-01-14T01:52:57.956Z,24.03
2019-01-14T01:55:27.155Z,26.90
2019-01-14T01:57:56.344Z,25.30
2019-01-14T02:00:25.775Z,26.70
2019-01-14T02:02:55.048Z,23.03
2019-01-14T02:05:24.270Z,21.00
2019-01-14T02:07:53.472Z,22.83
2019-01-14T02:10:23.361Z,34.20
2019-01-14T02:12:52.707Z,24.23
2019-01-14T02:15:22.787Z,17.03
2019-01-14T02:17:52.386Z,27.30
2019-01-14T02:20:22.051Z,24.93
2019-01-14T02:22:51.224Z,23.67
2019-01-14T02:25:20.644Z,24.13
2019-01-14T02:27:49.835Z,24.23
2019-01-14T02:30:23.594Z,23.60
2019-01-14T02:32:52.762Z,27.87
2019-01-14T02:35:22.079Z,25.53
2019-01-14T02:37:51.304Z,29.47
2019-01-14T02:40:21.992Z,21.00
2019-01-14T02:42:51.176Z,24.43
2019-01-14T02:45:20.371Z,23.57
2019-01-14T02:47:49.608Z,27.27
2019-01-14T02:50:18.876Z,20.43
2019-01-14T02:52:48.103Z,27.37
2019-01-14T02:55:17.284Z,32.17
2019-01-14T02:57:46.498Z,21.10
2019-01-14T03:00:26.775Z,21.27
2019-01-14T03:02:55.976Z,24.03
2019-01-14T03:05:25.241Z,24.60
2019-01-14T03:07:54.431Z,28.07
2019-01-14T03:10:23.649Z,24.40
2019-01-14T03:12:52.859Z,21.27
2019-01-14T03:15:22.121Z,22.63
2019-01-14T03:17:51.353Z,28.73
2019-01-14T03:20:20.567Z,21.23
2019-01-14T03:22:49.769Z,20.63
2019-01-14T03:25:19.267Z,19.37
2019-01-14T03:27:48.454Z,20.87
2019-01-14T03:30:19.389Z,15.93
2019-01-14T03:32:48.619Z,20.90
2019-01-14T03:35:17.857Z,23.70
2019-01-14T03:37:47.053Z,19.57
2019-01-14T03:40:18.023Z,15.57
2019-01-14T03:42:47.323Z,16.93
2019-01-14T03:45:16.938Z,22.03
2019-01-14T03:47:46.242Z,16.13
2019-01-14T03:50:20.893Z,17.50
2019-01-14T03:52:50.222Z,12.13
2019-01-14T03:55:19.415Z,11.93
2019-01-14T03:57:48.649Z,16.60
2019-01-14T04:00:18.483Z,12.97
2019-01-14T04:02:47.675Z,16.40
2019-01-14T04:05:16.951Z,18.63
2019-01-14T04:07:46.212Z,18.63
2019-01-14T04:10:16.756Z,14.57
2019-01-14T04:12:46.089Z,15.10
2019-01-14T04:15:17.124Z,15.10
2019-01-14T04:17:46.405Z,12.93
2019-01-14T04:20:16.769Z,13.97
2019-01-14T04:22:46.072Z,7.33
2019-01-14T04:25:15.569Z,11.80
2019-01-14T04:27:44.787Z,9.10
2019-01-14T04:30:19.668Z,4.40
2019-01-14T04:32:49.054Z,9.47
2019-01-14T04:35:18.833Z,10.13
2019-01-14T04:37:48.181Z,10.50
2019-01-14T04:40:17.379Z,9.77
2019-01-14T04:42:46.756Z,8.90
2019-01-14T04:45:16.017Z,13.57
2019-01-14T04:47:45.216Z,7.20
2019-01-14T04:50:17.048Z,8.63
2019-01-14T04:52:46.332Z,8.47
2019-01-14T04:55:15.646Z,11.83
2019-01-14T04:57:44.926Z,10.07
2019-01-14T05:00:19.540Z,13.93
2019-01-14T05:02:48.732Z,17.17
2019-01-14T05:05:17.938Z,11.40
2019-01-14T05:07:47.245Z,18.30
2019-01-14T05:10:17.083Z,16.27
2019-01-14T05:12:46.267Z,13.60
2019-01-14T05:15:15.518Z,14.93
2019-01-14T05:17:44.720Z,14.80
2019-01-14T05:20:24.913Z,16.53
2019-01-14T05:22:54.889Z,13.37
2019-01-14T05:25:24.328Z,19.63
2019-01-14T05:27:53.552Z,11.77
2019-01-14T05:30:22.768Z,13.00
2019-01-14T05:32:52.117Z,14.23
2019-01-14T05:35:21.339Z,13.57
2019-01-14T05:37:50.556Z,10.57
2019-01-14T05:40:21.966Z,9.60
2019-01-14T05:42:51.190Z,15.70
2019-01-14T05:45:20.665Z,14.50
2019-01-14T05:47:49.908Z,15.60
2019-01-14T05:50:19.225Z,17.90
2019-01-14T05:52:48.487Z,21.93
2019-01-14T05:55:18.100Z,15.57
2019-01-14T05:57:47.357Z,24.73
2019-01-14T06:00:48.207Z,17.67
2019-01-14T06:03:17.669Z,14.13
2019-01-14T06:05:46.915Z,20.63
2019-01-14T06:08:16.141Z,11.77
2019-01-14T06:10:45.399Z,17.03
2019-01-14T06:13:14.612Z,13.83
2019-01-14T06:15:43.826Z,23.93
2019-01-14T06:18:13.152Z,18.80
2019-01-14T06:20:42.538Z,16.73
2019-01-14T06:23:11.823Z,21.13
2019-01-14T06:25:41.172Z,13.20
2019-01-14T06:28:10.456Z,18.30
2019-01-14T06:30:39.761Z,17.10
2019-01-14T06:33:09.359Z,10.77
2019-01-14T06:35:38.786Z,22.40
2019-01-14T06:38:07.995Z,12.93
2019-01-14T06:40:37.324Z,14.40
2019-01-14T06:43:06.536Z,19.03
2019-01-14T06:45:35.924Z,15.23
2019-01-14T06:48:05.548Z,15.30
2019-01-14T06:50:34.800Z,19.13
2019-01-14T06:53:04.509Z,18.37
2019-01-14T06:55:33.683Z,12.37
2019-01-14T06:58:02.937Z,16.50
2019-01-14T07:00:32.157Z,16.97
2019-01-14T07:03:01.781Z,15.47
2019-01-14T07:05:31.184Z,14.40
2019-01-14T07:08:00.412Z,14.00
2019-01-14T07:10:31.160Z,13.33
2019-01-14T07:13:00.500Z,15.63
2019-01-14T07:15:29.800Z,14.13
2019-01-14T07:17:59.081Z,9.10
2019-01-14T07:20:28.493Z,9.70
2019-01-14T07:22:57.732Z,14.80
2019-01-14T07:25:26.960Z,12.47
2019-01-14T07:27:56.160Z,15.83
2019-01-14T07:30:25.749Z,14.07
2019-01-14T07:32:55.013Z,8.27
2019-01-14T07:35:24.301Z,12.63
2019-01-14T07:37:53.525Z,14.80
2019-01-14T07:40:22.803Z,7.93
2019-01-14T07:42:52.105Z,10.00
2019-01-14T07:45:21.396Z,15.43
2019-01-14T07:47:50.680Z,11.40
2019-01-14T07:50:20.573Z,9.83
2019-01-14T07:52:49.981Z,21.43
2019-01-14T07:55:19.251Z,12.37
2019-01-14T07:57:48.665Z,8.27
2019-01-14T08:00:25.515Z,12.80
2019-01-14T08:02:54.869Z,12.00
2019-01-14T08:05:24.257Z,12.37
2019-01-14T08:07:53.684Z,9.20
2019-01-14T08:10:22.914Z,6.50
2019-01-14T08:12:52.196Z,11.77
2019-01-14T08:15:22.589Z,18.13
2019-01-14T08:17:51.897Z,13.17
2019-01-14T08:20:21.208Z,15.57
2019-01-14T08:22:50.476Z,12.23
2019-01-14T08:25:19.715Z,12.20
2019-01-14T08:27:48.936Z,14.53
2019-01-14T08:30:27.086Z,21.77
2019-01-14T08:32:56.321Z,19.50
2019-01-14T08:35:25.636Z,8.30
2019-01-14T08:37:54.834Z,14.03
2019-01-14T08:40:24.082Z,9.67
2019-01-14T08:42:53.276Z,11.13
2019-01-14T08:45:23.366Z,9.90
2019-01-14T08:47:52.556Z,10.23
2019-01-14T08:50:22.206Z,10.20
2019-01-14T08:52:51.894Z,22.33
2019-01-14T08:55:21.191Z,13.20
2019-01-14T08:57:54.461Z,16.00
2019-01-14T09:00:22.817Z,14.73
2019-01-14T09:02:52.019Z,23.87
2019-01-14T09:05:21.403Z,14.83
2019-01-14T09:07:50.622Z,14.10
2019-01-14T09:10:22.655Z,12.57
2019-01-14T09:12:51.986Z,13.90
2019-01-14T09:15:21.210Z,15.30
2019-01-14T09:17:50.627Z,18.90
2019-01-14T09:20:21.740Z,20.93
2019-01-14T09:22:51.342Z,15.90
2019-01-14T09:25:20.647Z,25.07
2019-01-14T09:27:49.875Z,12.27
2019-01-14T09:30:24.042Z,14.97
2019-01-14T09:32:53.813Z,16.63
2019-01-14T09:35:23.065Z,11.87
2019-01-14T09:37:52.300Z,17.23
2019-01-14T09:40:23.202Z,18.23
2019-01-14T09:42:52.489Z,18.90
2019-01-14T09:45:21.712Z,17.10
2019-01-14T09:47:50.975Z,16.23
2019-01-14T09:50:20.259Z,16.10
2019-01-14T09:52:49.543Z,11.20
2019-01-14T09:55:19.644Z,14.53
2019-01-14T09:57:48.951Z,16.13
2019-01-14T10:00:18.268Z,13.37
2019-01-14T10:02:47.624Z,16.73
2019-01-14T10:05:18.579Z,9.73
2019-01-14T10:07:48.084Z,16.87
2019-01-14T10:10:18.584Z,13.57
2019-01-14T10:12:47.966Z,15.27
2019-01-14T10:15:22.227Z,17.40
2019-01-14T10:18:10.520Z,18.03
2019-01-14T10:20:39.720Z,17.13
2019-01-14T10:23:08.964Z,14.67
2019-01-14T10:25:38.214Z,17.53
2019-01-14T10:28:07.377Z,13.10
2019-01-14T10:30:36.945Z,15.23
2019-01-14T10:33:06.264Z,15.07
2019-01-14T10:35:35.585Z,11.03
2019-01-14T10:38:04.848Z,8.17
2019-01-14T10:40:34.125Z,13.70
2019-01-14T10:43:03.320Z,7.13
2019-01-14T10:45:33.206Z,13.37
2019-01-14T10:48:02.449Z,18.13
2019-01-14T10:50:32.034Z,10.40
2019-01-14T10:53:01.264Z,13.93
2019-01-14T10:55:30.502Z,13.10
2019-01-14T10:57:59.720Z,14.47
2019-01-14T11:00:30.212Z,21.23
2019-01-14T11:03:00.192Z,9.00
2019-01-14T11:05:31.245Z,17.50
2019-01-14T11:08:00.771Z,8.80
2019-01-14T11:10:29.987Z,13.00
2019-01-14T11:12:59.284Z,18.67
2019-01-14T11:15:28.564Z,11.60
2019-01-14T11:17:57.931Z,9.77
2019-01-14T11:20:29.119Z,12.67
2019-01-14T11:22:58.735Z,8.13
2019-01-14T11:25:28.213Z,14.60
2019-01-14T11:27:57.809Z,9.90
2019-01-14T11:30:33.029Z,6.83
2019-01-14T11:33:02.264Z,15.73
2019-01-14T11:35:31.464Z,10.53
2019-01-14T11:38:00.662Z,11.73
2019-01-14T11:40:38.544Z,9.23
2019-01-14T11:43:08.028Z,7.07
2019-01-14T11:45:37.376Z,11.27
2019-01-14T11:48:07.256Z,8.10
2019-01-14T11:50:36.484Z,11.77
2019-01-14T11:53:05.821Z,6.60
2019-01-14T11:55:35.076Z,10.37
2019-01-14T11:58:04.341Z,9.37
2019-01-14T12:00:36.883Z,11.93
2019-01-14T12:03:04.433Z,9.13
2019-01-14T12:05:34.542Z,7.43
2019-01-14T12:08:03.748Z,9.03
2019-01-14T12:10:33.124Z,8.03
2019-01-14T12:13:02.416Z,6.30
2019-01-14T12:15:32.132Z,9.80
2019-01-14T12:18:01.353Z,8.90
2019-01-14T12:20:30.588Z,7.50
2019-01-14T12:22:59.820Z,9.93
2019-01-14T12:25:29.029Z,7.67
2019-01-14T12:27:58.377Z,10.50
2019-01-14T12:30:36.077Z,9.50
2019-01-14T12:33:06.042Z,8.07
2019-01-14T12:35:35.238Z,9.60
2019-01-14T12:38:04.701Z,9.00
2019-01-14T12:40:34.047Z,10.63
2019-01-14T12:43:03.354Z,9.37
2019-01-14T12:45:32.557Z,11.60
2019-01-14T12:48:02.225Z,9.60
2019-01-14T12:50:31.544Z,8.73
2019-01-14T12:53:00.789Z,10.93
2019-01-14T12:55:29.984Z,7.17
2019-01-14T12:57:59.211Z,6.43
2019-01-14T13:00:29.698Z,3.53
2019-01-14T13:02:58.983Z,5.47
2019-01-14T13:05:29.859Z,5.03
2019-01-14T13:08:00.187Z,8.67
2019-01-14T13:10:29.492Z,6.67
2019-01-14T13:12:58.800Z,10.23
2019-01-14T13:15:28.880Z,7.73
2019-01-14T13:17:58.068Z,6.47
2019-01-14T13:20:27.384Z,5.77
2019-01-14T13:22:56.657Z,8.40
2019-01-14T13:25:26.200Z,9.67
2019-01-14T13:27:55.412Z,10.90
2019-01-14T13:30:26.700Z,11.00
2019-01-14T13:32:56.072Z,9.53
2019-01-14T13:35:25.312Z,9.37
2019-01-14T13:37:54.536Z,11.50
2019-01-14T13:40:23.823Z,8.20
2019-01-14T13:42:53.028Z,12.27
2019-01-14T13:45:22.377Z,15.70
2019-01-14T13:47:52.073Z,8.17
2019-01-14T13:50:23.275Z,11.70
2019-01-14T13:52:52.472Z,6.13
2019-01-14T13:55:22.136Z,9.40
2019-01-14T13:57:52.373Z,8.40
2019-01-14T14:00:23.517Z,13.90
2019-01-14T14:02:53.048Z,12.40
2019-01-14T14:05:22.357Z,8.93
2019-01-14T14:07:51.591Z,12.13
2019-01-14T14:10:26.084Z,8.53
2019-01-14T14:12:55.334Z,9.50
2019-01-14T14:15:24.664Z,11.13
2019-01-14T14:17:53.932Z,8.53
2019-01-14T14:20:23.147Z,9.40
2019-01-14T14:22:52.424Z,10.23
2019-01-14T14:25:21.688Z,7.90
2019-01-14T14:27:50.916Z,5.60
2019-01-14T14:30:25.985Z,7.53
2019-01-14T14:32:55.216Z,9.77
2019-01-14T14:35:24.578Z,7.10
2019-01-14T14:38:00.646Z,4.27
2019-01-14T14:40:24.633Z,9.57
2019-01-14T14:42:54.527Z,14.20
2019-01-14T14:45:23.828Z,9.83
2019-01-14T14:47:53.025Z,8.27
2019-01-14T14:50:22.289Z,8.93
2019-01-14T14:52:51.536Z,14.30
2019-01-14T14:55:20.768Z,9.13
2019-01-14T14:57:50.055Z,22.13
2019-01-14T15:00:20.765Z,11.23
2019-01-14T15:02:50.081Z,11.13
2019-01-14T15:05:19.495Z,9.87
2019-01-14T15:07:48.802Z,16.73
2019-01-14T15:10:19.765Z,12.57
2019-01-14T15:12:49.051Z,11.20
2019-01-14T15:15:19.861Z,13.33
2019-01-14T15:17:49.050Z,13.03
2019-01-14T15:20:19.268Z,17.17
2019-01-14T15:22:48.637Z,7.20
2019-01-14T15:25:17.911Z,14.07
2019-01-14T15:27:47.117Z,14.37
2019-01-14T15:30:27.977Z,15.73
2019-01-14T15:32:57.211Z,12.17
2019-01-14T15:35:26.549Z,11.23
2019-01-14T15:37:55.759Z,14.60
2019-01-14T15:40:25.782Z,12.73
2019-01-14T15:42:54.979Z,17.50
2019-01-14T15:45:25.577Z,13.97
2019-01-14T15:47:54.837Z,11.73
2019-01-14T15:50:24.047Z,14.47
2019-01-14T15:52:53.304Z,12.97
2019-01-14T15:55:24.929Z,13.53
2019-01-14T15:57:54.125Z,12.07
2019-01-14T16:00:23.410Z,16.37
2019-01-14T16:02:53.136Z,16.47
2019-01-14T16:05:23.079Z,9.03
2019-01-14T16:07:52.714Z,11.70
2019-01-14T16:10:24.969Z,6.73
2019-01-14T16:12:55.131Z,9.83
2019-01-14T16:15:25.171Z,7.73
2019-01-14T16:17:55.096Z,12.47
2019-01-14T16:20:26.331Z,12.23
2019-01-14T16:22:55.715Z,11.93
2019-01-14T16:25:25.636Z,7.73
2019-01-14T16:27:56.205Z,10.70
2019-01-14T16:30:29.388Z,11.57
2019-01-14T16:32:59.200Z,12.57
2019-01-14T16:35:31.276Z,8.07
2019-01-14T16:38:00.937Z,9.50
2019-01-14T16:40:30.938Z,12.60
2019-01-14T16:43:00.906Z,17.80
2019-01-14T16:45:30.700Z,15.57
2019-01-14T16:47:59.914Z,14.23
2019-01-14T16:50:29.482Z,10.00
2019-01-14T16:52:59.221Z,12.30
2019-01-14T16:55:48.056Z,18.60
2019-01-14T16:58:17.920Z,11.13
2019-01-14T17:00:47.546Z,19.20
2019-01-14T17:03:17.441Z,13.17
2019-01-14T17:05:47.161Z,13.00
2019-01-14T17:08:16.781Z,17.30
2019-01-14T17:10:46.608Z,12.83
2019-01-14T17:13:16.404Z,14.50
2019-01-14T17:15:45.991Z,17.63
2019-01-14T17:18:16.064Z,14.70
2019-01-14T17:20:46.239Z,13.70
2019-01-14T17:23:16.221Z,19.37
2019-01-14T17:25:46.572Z,18.03
2019-01-14T17:28:16.444Z,19.20
2019-01-14T17:30:46.014Z,15.73
2019-01-14T17:33:16.029Z,14.53
2019-01-14T17:35:46.153Z,7.50
2019-01-14T17:38:15.820Z,10.07
2019-01-14T17:40:45.432Z,14.13
2019-01-14T17:43:15.112Z,9.83
2019-01-14T17:45:45.064Z,11.60
2019-01-14T17:48:14.490Z,10.27
2019-01-14T17:50:43.698Z,10.60
2019-01-14T17:53:12.911Z,9.07
2019-01-14T17:55:42.145Z,7.20
2019-01-14T17:58:11.412Z,10.03
2019-01-14T18:00:40.726Z,10.40
2019-01-14T18:03:09.942Z,12.10
2019-01-14T18:05:39.177Z,10.50
2019-01-14T18:08:08.564Z,8.77
2019-01-14T18:10:40.250Z,10.50
2019-01-14T18:13:08.725Z,10.27
2019-01-14T18:15:38.025Z,11.57
2019-01-14T18:18:07.309Z,7.77
2019-01-14T18:20:36.590Z,13.50
2019-01-14T18:23:05.980Z,11.83
2019-01-14T18:25:35.184Z,7.87
2019-01-14T18:28:04.420Z,8.70
2019-01-14T18:30:33.665Z,8.70
2019-01-14T18:33:03.105Z,12.47
2019-01-14T18:35:32.401Z,10.00
2019-01-14T18:38:01.680Z,8.63
2019-01-14T18:40:34.078Z,11.93
2019-01-14T18:43:01.949Z,14.03
2019-01-14T18:45:31.172Z,9.30
2019-01-14T18:48:00.447Z,14.33
2019-01-14T18:50:29.681Z,12.30
2019-01-14T18:52:58.946Z,13.17
2019-01-14T18:55:28.195Z,11.30
2019-01-14T18:57:57.422Z,19.27
2019-01-14T19:00:26.696Z,9.77
2019-01-14T19:02:55.911Z,13.03
2019-01-14T19:05:25.183Z,9.83
2019-01-14T19:07:54.392Z,14.30
2019-01-14T19:10:23.699Z,11.43
2019-01-14T19:12:52.984Z,10.70
2019-01-14T19:15:22.313Z,14.83
2019-01-14T19:17:52.846Z,16.07
2019-01-14T19:20:24.505Z,22.77
2019-01-14T19:22:53.719Z,14.10
2019-01-14T19:25:22.937Z,14.10
2019-01-14T19:27:52.176Z,12.33
2019-01-14T19:30:21.590Z,11.20
2019-01-14T19:32:50.841Z,16.90
2019-01-14T19:35:20.073Z,9.80
2019-01-14T19:37:49.280Z,19.13
2019-01-14T19:40:20.111Z,16.40
2019-01-14T19:42:49.859Z,11.47
2019-01-14T19:45:20.500Z,14.50
2019-01-14T19:47:50.012Z,12.43
2019-01-14T19:50:21.381Z,13.07
2019-01-14T19:52:50.527Z,15.33
2019-01-14T19:55:19.755Z,12.70
2019-01-14T19:57:50.121Z,9.93
2019-01-14T20:00:28.387Z,12.97
2019-01-14T20:02:57.831Z,14.30
2019-01-14T20:05:27.140Z,16.33
2019-01-14T20:07:56.556Z,10.80
2019-01-14T20:10:25.772Z,12.43
2019-01-14T20:12:55.861Z,10.83
2019-01-14T20:15:25.198Z,20.10
2019-01-14T20:17:54.383Z,18.30
2019-01-14T20:20:23.596Z,14.70
2019-01-14T20:22:52.899Z,11.53
2019-01-14T20:25:22.195Z,20.40
2019-01-14T20:27:51.392Z,16.10
2019-01-14T20:30:22.579Z,22.10
2019-01-14T20:32:51.901Z,10.70
2019-01-14T20:35:21.141Z,22.13
2019-01-14T20:37:50.340Z,20.93
2019-01-14T20:40:19.595Z,18.03
2019-01-14T20:42:48.887Z,10.50
2019-01-14T20:45:18.132Z,19.47
2019-01-14T20:47:47.408Z,19.93
2019-01-14T20:50:18.504Z,22.87
2019-01-14T20:52:47.735Z,19.40
2019-01-14T20:55:16.949Z,14.10
2019-01-14T20:57:46.169Z,14.77
2019-01-14T21:00:18.356Z,14.70
2019-01-14T21:02:47.667Z,14.17
2019-01-14T21:05:17.659Z,15.90
2019-01-14T21:07:46.880Z,16.40
2019-01-14T21:10:16.535Z,12.00
2019-01-14T21:12:45.736Z,15.50
2019-01-14T21:15:15.249Z,17.10
2019-01-14T21:17:44.493Z,14.70
2019-01-14T21:20:16.624Z,14.23
2019-01-14T21:22:45.909Z,14.70
2019-01-14T21:25:15.160Z,18.87
2019-01-14T21:27:44.375Z,15.67
2019-01-14T21:30:18.876Z,20.00
2019-01-14T21:32:48.104Z,14.63
2019-01-14T21:35:17.413Z,13.40
2019-01-14T21:37:46.749Z,18.83
2019-01-14T21:40:16.133Z,16.73
2019-01-14T21:42:45.372Z,14.87
2019-01-14T21:45:14.940Z,14.40
2019-01-14T21:47:44.208Z,18.80
2019-01-14T21:50:15.641Z,14.90
2019-01-14T21:52:44.849Z,20.73
2019-01-14T21:55:16.404Z,15.97
2019-01-14T21:57:47.021Z,19.77
2019-01-14T22:00:18.648Z,21.37
2019-01-14T22:02:47.848Z,12.17
2019-01-14T22:05:17.112Z,22.53
2019-01-14T22:07:46.285Z,12.57
2019-01-14T22:10:23.757Z,18.20
2019-01-14T22:12:52.940Z,13.77
2019-01-14T22:15:22.148Z,14.67
2019-01-14T22:17:51.360Z,18.50
2019-01-14T22:20:22.743Z,19.33
2019-01-14T22:22:52.137Z,15.53
2019-01-14T22:25:21.358Z,11.37
2019-01-14T22:27:50.608Z,14.73
2019-01-14T22:30:22.399Z,13.63
2019-01-14T22:32:51.664Z,22.23
2019-01-14T22:35:20.926Z,15.37
2019-01-14T22:37:50.089Z,18.33
2019-01-14T22:40:19.299Z,17.87
2019-01-14T22:42:48.524Z,28.60
2019-01-14T22:45:17.805Z,17.50
2019-01-14T22:47:47.039Z,17.07
2019-01-14T22:50:16.888Z,19.47
2019-01-14T22:52:46.097Z,19.07
2019-01-14T22:55:15.356Z,17.50
2019-01-14T22:57:44.552Z,20.20
2019-01-14T23:01:14.251Z,19.87
2019-01-14T23:03:51.764Z,12.27
2019-01-14T23:06:20.992Z,15.97
2019-01-14T23:08:50.286Z,20.07
2019-01-14T23:11:19.501Z,16.77
2019-01-14T23:13:48.730Z,18.67
2019-01-14T23:16:17.957Z,23.20
2019-01-14T23:18:47.195Z,17.20
2019-01-14T23:21:16.383Z,15.73
2019-01-14T23:23:45.626Z,22.03
2019-01-14T23:26:14.925Z,20.53
2019-01-14T23:28:44.136Z,19.33
2019-01-14T23:31:13.473Z,14.13
2019-01-14T23:33:42.700Z,20.07
2019-01-14T23:36:12.002Z,19.53
2019-01-14T23:38:41.214Z,19.33
2019-01-14T23:41:10.434Z,15.00
2019-01-14T23:43:39.762Z,28.07
2019-01-14T23:46:09.060Z,22.77
2019-01-14T23:48:38.365Z,22.67
2019-01-14T23:51:07.644Z,23.70
2019-01-14T23:53:36.872Z,21.10
2019-01-14T23:56:06.199Z,21.97
2019-01-14T23:58:35.424Z,22.17
